sensor_id;sensor_type;location;lat;lon;timestamp;P1;durP1;ratioP1;P2;durP2;ratioP2
15526;SDS011;7865;50.918;4.510;2022-12-18T00:01:50;31.40;;;12.77;;
15526;SDS011;7865;50.918;4.510;2022-12-18T00:06:52;30.63;;;11.70;;
15526;SDS011;7865;50.918;4.510;2022-12-18T00:11:54;30.23;;;12.93;;
15526;SDS011;7865;50.918;4.510;2022-12-18T00:16:57;29.47;;;13.13;;
15526;SDS011;7865;50.918;4.510;2022-12-18T00:22:02;30.70;;;12.60;;
15526;SDS011;7865;50.918;4.510;2022-12-18T00:27:04;33.47;;;13.90;;
15526;SDS011;7865;50.918;4.510;2022-12-18T00:32:05;37.03;;;15.63;;
15526;SDS011;7865;50.918;4.510;2022-12-18T00:37:07;22.97;;;10.57;;
15526;SDS011;7865;50.918;4.510;2022-12-18T00:42:10;22.43;;;11.97;;
15526;SDS011;7865;50.918;4.510;2022-12-18T00:47:30;28.43;;;14.17;;
15526;SDS011;7865;50.918;4.510;2022-12-18T00:52:32;23.50;;;11.53;;
15526;SDS011;7865;50.918;4.510;2022-12-18T00:57:34;31.47;;;13.27;;
15526;SDS011;7865;50.918;4.510;2022-12-18T01:02:38;25.03;;;11.57;;
15526;SDS011;7865;50.918;4.510;2022-12-18T01:07:41;20.97;;;11.43;;
15526;SDS011;7865;50.918;4.510;2022-12-18T01:12:43;28.47;;;12.80;;
15526;SDS011;7865;50.918;4.510;2022-12-18T01:17:45;23.90;;;13.73;;
15526;SDS011;7865;50.918;4.510;2022-12-18T01:22:47;25.93;;;12.57;;
15526;SDS011;7865;50.918;4.510;2022-12-18T01:27:49;32.33;;;14.03;;
15526;SDS011;7865;50.918;4.510;2022-12-18T01:32:51;25.13;;;12.53;;
15526;SDS011;7865;50.918;4.510;2022-12-18T01:37:56;23.23;;;10.80;;
15526;SDS011;7865;50.918;4.510;2022-12-18T01:42:58;23.87;;;12.20;;
15526;SDS011;7865;50.918;4.510;2022-12-18T01:48:01;26.40;;;10.70;;
15526;SDS011;7865;50.918;4.510;2022-12-18T01:53:10;25.10;;;11.50;;
15526;SDS011;7865;50.918;4.510;2022-12-18T01:58:15;25.17;;;12.27;;
15526;SDS011;7865;50.918;4.510;2022-12-18T02:03:18;20.90;;;10.20;;
15526;SDS011;7865;50.918;4.510;2022-12-18T02:13:46;27.90;;;12.83;;
15526;SDS011;7865;50.918;4.510;2022-12-18T02:19:00;26.83;;;11.50;;
15526;SDS011;7865;50.918;4.510;2022-12-18T02:24:18;29.53;;;13.07;;
15526;SDS011;7865;50.918;4.510;2022-12-18T02:29:29;26.30;;;12.00;;
15526;SDS011;7865;50.918;4.510;2022-12-18T02:34:37;23.23;;;10.93;;
15526;SDS011;7865;50.918;4.510;2022-12-18T02:39:45;17.67;;;9.53;;
15526;SDS011;7865;50.918;4.510;2022-12-18T02:44:51;26.83;;;11.70;;
15526;SDS011;7865;50.918;4.510;2022-12-18T02:55:48;17.67;;;8.50;;
15526;SDS011;7865;50.918;4.510;2022-12-18T03:05:54;19.47;;;10.23;;
15526;SDS011;7865;50.918;4.510;2022-12-18T03:11:10;20.93;;;10.13;;
15526;SDS011;7865;50.918;4.510;2022-12-18T03:16:20;24.07;;;10.93;;
15526;SDS011;7865;50.918;4.510;2022-12-18T03:21:38;23.63;;;8.20;;
15526;SDS011;7865;50.918;4.510;2022-12-18T03:26:44;21.03;;;9.73;;
15526;SDS011;7865;50.918;4.510;2022-12-18T03:31:51;22.53;;;10.00;;
15526;SDS011;7865;50.918;4.510;2022-12-18T03:36:57;24.40;;;10.07;;
15526;SDS011;7865;50.918;4.510;2022-12-18T03:47:30;22.20;;;9.47;;
15526;SDS011;7865;50.918;4.510;2022-12-18T03:52:46;26.43;;;10.83;;
15526;SDS011;7865;50.918;4.510;2022-12-18T03:57:53;22.47;;;10.33;;
15526;SDS011;7865;50.918;4.510;2022-12-18T04:02:57;22.30;;;9.77;;
15526;SDS011;7865;50.918;4.510;2022-12-18T04:08:09;18.47;;;9.93;;
15526;SDS011;7865;50.918;4.510;2022-12-18T04:13:30;20.20;;;10.80;;
15526;SDS011;7865;50.918;4.510;2022-12-18T04:18:36;22.03;;;9.57;;
15526;SDS011;7865;50.918;4.510;2022-12-18T04:23:38;21.90;;;9.37;;
15526;SDS011;7865;50.918;4.510;2022-12-18T04:28:41;24.37;;;9.07;;
15526;SDS011;7865;50.918;4.510;2022-12-18T04:33:44;14.77;;;8.40;;
15526;SDS011;7865;50.918;4.510;2022-12-18T04:38:47;22.97;;;9.57;;
15526;SDS011;7865;50.918;4.510;2022-12-18T04:43:51;24.50;;;8.17;;
15526;SDS011;7865;50.918;4.510;2022-12-18T04:48:53;20.13;;;8.53;;
15526;SDS011;7865;50.918;4.510;2022-12-18T04:53:55;21.40;;;10.87;;
15526;SDS011;7865;50.918;4.510;2022-12-18T04:58:57;17.30;;;9.80;;
15526;SDS011;7865;50.918;4.510;2022-12-18T05:03:59;20.60;;;10.87;;
15526;SDS011;7865;50.918;4.510;2022-12-18T05:09:01;26.60;;;10.57;;
15526;SDS011;7865;50.918;4.510;2022-12-18T05:14:03;15.50;;;7.33;;
15526;SDS011;7865;50.918;4.510;2022-12-18T05:19:05;17.77;;;9.07;;
15526;SDS011;7865;50.918;4.510;2022-12-18T05:24:07;19.03;;;9.03;;
15526;SDS011;7865;50.918;4.510;2022-12-18T05:29:09;14.53;;;7.80;;
15526;SDS011;7865;50.918;4.510;2022-12-18T05:34:14;23.17;;;9.97;;
15526;SDS011;7865;50.918;4.510;2022-12-18T05:39:16;27.33;;;10.53;;
15526;SDS011;7865;50.918;4.510;2022-12-18T05:44:18;14.87;;;6.80;;
15526;SDS011;7865;50.918;4.510;2022-12-18T05:49:19;11.93;;;6.30;;
15526;SDS011;7865;50.918;4.510;2022-12-18T05:54:21;20.63;;;9.50;;
15526;SDS011;7865;50.918;4.510;2022-12-18T05:59:23;20.60;;;8.50;;
15526;SDS011;7865;50.918;4.510;2022-12-18T06:04:26;18.87;;;7.93;;
15526;SDS011;7865;50.918;4.510;2022-12-18T06:09:30;13.53;;;7.37;;
15526;SDS011;7865;50.918;4.510;2022-12-18T06:14:32;15.10;;;7.07;;
15526;SDS011;7865;50.918;4.510;2022-12-18T06:19:33;24.50;;;9.00;;
15526;SDS011;7865;50.918;4.510;2022-12-18T06:24:35;19.40;;;9.37;;
15526;SDS011;7865;50.918;4.510;2022-12-18T06:29:37;17.40;;;8.80;;
15526;SDS011;7865;50.918;4.510;2022-12-18T06:34:39;19.10;;;9.37;;
15526;SDS011;7865;50.918;4.510;2022-12-18T06:39:41;15.90;;;8.73;;
15526;SDS011;7865;50.918;4.510;2022-12-18T06:44:43;18.33;;;10.83;;
15526;SDS011;7865;50.918;4.510;2022-12-18T06:49:45;13.30;;;7.47;;
15526;SDS011;7865;50.918;4.510;2022-12-18T06:54:47;20.40;;;10.07;;
15526;SDS011;7865;50.918;4.510;2022-12-18T06:59:49;17.27;;;7.83;;
15526;SDS011;7865;50.918;4.510;2022-12-18T07:04:51;14.90;;;7.83;;
15526;SDS011;7865;50.918;4.510;2022-12-18T07:09:52;15.73;;;8.17;;
15526;SDS011;7865;50.918;4.510;2022-12-18T07:14:54;13.00;;;7.60;;
15526;SDS011;7865;50.918;4.510;2022-12-18T07:19:56;12.17;;;6.97;;
15526;SDS011;7865;50.918;4.510;2022-12-18T07:24:58;17.27;;;7.77;;
15526;SDS011;7865;50.918;4.510;2022-12-18T07:30:00;15.53;;;8.03;;
15526;SDS011;7865;50.918;4.510;2022-12-18T07:35:02;13.03;;;8.23;;
15526;SDS011;7865;50.918;4.510;2022-12-18T07:40:04;15.13;;;7.80;;
15526;SDS011;7865;50.918;4.510;2022-12-18T07:45:07;24.97;;;9.67;;
15526;SDS011;7865;50.918;4.510;2022-12-18T07:50:10;18.93;;;9.20;;
15526;SDS011;7865;50.918;4.510;2022-12-18T07:55:12;10.17;;;7.17;;
15526;SDS011;7865;50.918;4.510;2022-12-18T08:00:14;11.67;;;5.70;;
15526;SDS011;7865;50.918;4.510;2022-12-18T08:05:16;15.47;;;6.77;;
15526;SDS011;7865;50.918;4.510;2022-12-18T08:10:19;18.13;;;8.40;;
15526;SDS011;7865;50.918;4.510;2022-12-18T08:15:21;16.70;;;9.03;;
15526;SDS011;7865;50.918;4.510;2022-12-18T08:20:23;23.20;;;8.77;;
15526;SDS011;7865;50.918;4.510;2022-12-18T08:25:25;17.77;;;9.33;;
15526;SDS011;7865;50.918;4.510;2022-12-18T08:30:27;15.90;;;9.07;;
15526;SDS011;7865;50.918;4.510;2022-12-18T08:35:29;11.10;;;7.23;;
15526;SDS011;7865;50.918;4.510;2022-12-18T08:40:38;13.30;;;6.50;;
15526;SDS011;7865;50.918;4.510;2022-12-18T08:45:40;9.20;;;5.03;;
15526;SDS011;7865;50.918;4.510;2022-12-18T08:50:42;15.27;;;7.07;;
15526;SDS011;7865;50.918;4.510;2022-12-18T08:55:44;15.73;;;7.97;;
15526;SDS011;7865;50.918;4.510;2022-12-18T09:00:50;9.90;;;6.30;;
15526;SDS011;7865;50.918;4.510;2022-12-18T09:05:52;12.33;;;7.10;;
15526;SDS011;7865;50.918;4.510;2022-12-18T09:10:54;11.63;;;6.83;;
15526;SDS011;7865;50.918;4.510;2022-12-18T09:15:56;16.90;;;8.03;;
15526;SDS011;7865;50.918;4.510;2022-12-18T09:20:58;11.80;;;6.30;;
15526;SDS011;7865;50.918;4.510;2022-12-18T09:26:00;11.97;;;6.57;;
15526;SDS011;7865;50.918;4.510;2022-12-18T09:31:06;16.27;;;7.03;;
15526;SDS011;7865;50.918;4.510;2022-12-18T09:36:11;13.90;;;7.30;;
15526;SDS011;7865;50.918;4.510;2022-12-18T09:46:43;11.23;;;6.50;;
15526;SDS011;7865;50.918;4.510;2022-12-18T09:56:56;11.00;;;7.07;;
15526;SDS011;7865;50.918;4.510;2022-12-18T10:01:58;11.20;;;6.97;;
15526;SDS011;7865;50.918;4.510;2022-12-18T10:07:03;12.43;;;6.87;;
15526;SDS011;7865;50.918;4.510;2022-12-18T10:12:17;14.17;;;7.60;;
15526;SDS011;7865;50.918;4.510;2022-12-18T10:23:00;14.77;;;8.53;;
15526;SDS011;7865;50.918;4.510;2022-12-18T10:28:16;15.80;;;7.43;;
15526;SDS011;7865;50.918;4.510;2022-12-18T10:33:23;11.73;;;7.13;;
15526;SDS011;7865;50.918;4.510;2022-12-18T10:38:30;16.50;;;7.53;;
15526;SDS011;7865;50.918;4.510;2022-12-18T10:43:34;14.30;;;8.67;;
15526;SDS011;7865;50.918;4.510;2022-12-18T10:48:49;16.53;;;7.80;;
15526;SDS011;7865;50.918;4.510;2022-12-18T10:54:06;19.57;;;8.47;;
15526;SDS011;7865;50.918;4.510;2022-12-18T10:59:18;17.53;;;8.80;;
15526;SDS011;7865;50.918;4.510;2022-12-18T11:04:21;18.27;;;9.00;;
15526;SDS011;7865;50.918;4.510;2022-12-18T11:09:30;18.97;;;10.80;;
15526;SDS011;7865;50.918;4.510;2022-12-18T11:14:34;19.50;;;9.97;;
15526;SDS011;7865;50.918;4.510;2022-12-18T11:19:59;24.00;;;11.03;;
15526;SDS011;7865;50.918;4.510;2022-12-18T11:25:26;19.07;;;11.27;;
15526;SDS011;7865;50.918;4.510;2022-12-18T11:30:36;20.93;;;11.63;;
15526;SDS011;7865;50.918;4.510;2022-12-18T11:40:47;17.53;;;10.30;;
15526;SDS011;7865;50.918;4.510;2022-12-18T11:46:05;21.13;;;9.20;;
15526;SDS011;7865;50.918;4.510;2022-12-18T11:51:23;16.13;;;9.07;;
15526;SDS011;7865;50.918;4.510;2022-12-18T11:56:35;19.80;;;10.43;;
15526;SDS011;7865;50.918;4.510;2022-12-18T12:01:41;24.90;;;12.07;;
15526;SDS011;7865;50.918;4.510;2022-12-18T12:17:44;18.80;;;9.63;;
15526;SDS011;7865;50.918;4.510;2022-12-18T12:22:55;16.70;;;9.87;;
15526;SDS011;7865;50.918;4.510;2022-12-18T12:28:13;17.87;;;9.70;;
15526;SDS011;7865;50.918;4.510;2022-12-18T12:39:01;20.00;;;12.20;;
15526;SDS011;7865;50.918;4.510;2022-12-18T12:44:08;19.70;;;11.30;;
15526;SDS011;7865;50.918;4.510;2022-12-18T12:49:20;21.10;;;11.47;;
15526;SDS011;7865;50.918;4.510;2022-12-18T12:54:25;21.77;;;12.37;;
15526;SDS011;7865;50.918;4.510;2022-12-18T13:04:56;19.07;;;11.67;;
15526;SDS011;7865;50.918;4.510;2022-12-18T13:15:38;22.40;;;12.10;;
15526;SDS011;7865;50.918;4.510;2022-12-18T13:31:12;21.50;;;11.90;;
15526;SDS011;7865;50.918;4.510;2022-12-18T13:36:33;28.33;;;13.70;;
15526;SDS011;7865;50.918;4.510;2022-12-18T13:41:36;23.77;;;12.77;;
15526;SDS011;7865;50.918;4.510;2022-12-18T13:46:43;24.27;;;13.17;;
15526;SDS011;7865;50.918;4.510;2022-12-18T13:51:48;25.10;;;12.80;;
15526;SDS011;7865;50.918;4.510;2022-12-18T13:56:59;18.20;;;10.50;;
15526;SDS011;7865;50.918;4.510;2022-12-18T14:02:05;23.30;;;11.97;;
15526;SDS011;7865;50.918;4.510;2022-12-18T14:07:20;24.07;;;12.67;;
15526;SDS011;7865;50.918;4.510;2022-12-18T14:12:32;26.57;;;11.43;;
15526;SDS011;7865;50.918;4.510;2022-12-18T14:18:29;27.23;;;11.77;;
15526;SDS011;7865;50.918;4.510;2022-12-18T14:28:32;21.63;;;10.70;;
15526;SDS011;7865;50.918;4.510;2022-12-18T14:33:34;19.77;;;11.00;;
15526;SDS011;7865;50.918;4.510;2022-12-18T14:38:40;20.67;;;11.57;;
15526;SDS011;7865;50.918;4.510;2022-12-18T14:43:42;25.90;;;11.80;;
15526;SDS011;7865;50.918;4.510;2022-12-18T14:48:46;30.77;;;14.50;;
15526;SDS011;7865;50.918;4.510;2022-12-18T14:54:05;27.30;;;13.30;;
15526;SDS011;7865;50.918;4.510;2022-12-18T14:59:19;27.77;;;12.53;;
15526;SDS011;7865;50.918;4.510;2022-12-18T15:04:28;23.47;;;13.33;;
15526;SDS011;7865;50.918;4.510;2022-12-18T15:09:36;26.80;;;13.17;;
15526;SDS011;7865;50.918;4.510;2022-12-18T15:14:39;26.90;;;12.97;;
15526;SDS011;7865;50.918;4.510;2022-12-18T15:19:43;27.83;;;13.50;;
15526;SDS011;7865;50.918;4.510;2022-12-18T15:24:47;26.13;;;12.27;;
15526;SDS011;7865;50.918;4.510;2022-12-18T15:35:17;28.77;;;12.87;;
15526;SDS011;7865;50.918;4.510;2022-12-18T15:40:23;29.23;;;13.73;;
15526;SDS011;7865;50.918;4.510;2022-12-18T15:45:26;32.73;;;14.07;;
15526;SDS011;7865;50.918;4.510;2022-12-18T15:50:29;35.07;;;15.17;;
15526;SDS011;7865;50.918;4.510;2022-12-18T15:55:31;34.27;;;15.43;;
15526;SDS011;7865;50.918;4.510;2022-12-18T16:00:57;28.57;;;13.70;;
15526;SDS011;7865;50.918;4.510;2022-12-18T16:06:00;25.27;;;13.47;;
15526;SDS011;7865;50.918;4.510;2022-12-18T16:11:04;29.37;;;13.57;;
15526;SDS011;7865;50.918;4.510;2022-12-18T16:16:10;26.00;;;14.07;;
15526;SDS011;7865;50.918;4.510;2022-12-18T16:21:12;25.10;;;13.17;;
15526;SDS011;7865;50.918;4.510;2022-12-18T16:26:14;30.30;;;14.70;;
15526;SDS011;7865;50.918;4.510;2022-12-18T16:31:15;28.17;;;12.93;;
15526;SDS011;7865;50.918;4.510;2022-12-18T16:36:17;28.77;;;13.13;;
15526;SDS011;7865;50.918;4.510;2022-12-18T16:41:19;30.00;;;13.33;;
15526;SDS011;7865;50.918;4.510;2022-12-18T16:46:33;29.37;;;13.97;;
15526;SDS011;7865;50.918;4.510;2022-12-18T16:51:35;24.10;;;12.13;;
15526;SDS011;7865;50.918;4.510;2022-12-18T16:56:37;27.30;;;13.17;;
15526;SDS011;7865;50.918;4.510;2022-12-18T17:01:39;28.13;;;13.70;;
15526;SDS011;7865;50.918;4.510;2022-12-18T17:06:43;28.57;;;14.67;;
15526;SDS011;7865;50.918;4.510;2022-12-18T17:11:46;27.90;;;13.73;;
15526;SDS011;7865;50.918;4.510;2022-12-18T17:16:48;25.50;;;11.90;;
15526;SDS011;7865;50.918;4.510;2022-12-18T17:22:10;29.43;;;14.10;;
15526;SDS011;7865;50.918;4.510;2022-12-18T17:27:12;30.47;;;14.30;;
15526;SDS011;7865;50.918;4.510;2022-12-18T17:32:15;24.00;;;13.20;;
15526;SDS011;7865;50.918;4.510;2022-12-18T17:37:17;29.00;;;13.80;;
15526;SDS011;7865;50.918;4.510;2022-12-18T17:42:20;25.30;;;12.33;;
15526;SDS011;7865;50.918;4.510;2022-12-18T17:47:22;22.57;;;12.13;;
15526;SDS011;7865;50.918;4.510;2022-12-18T17:52:24;30.87;;;15.03;;
15526;SDS011;7865;50.918;4.510;2022-12-18T17:57:26;27.93;;;12.37;;
15526;SDS011;7865;50.918;4.510;2022-12-18T18:02:28;25.60;;;11.30;;
15526;SDS011;7865;50.918;4.510;2022-12-18T18:07:30;26.33;;;11.53;;
15526;SDS011;7865;50.918;4.510;2022-12-18T18:12:32;31.17;;;14.27;;
15526;SDS011;7865;50.918;4.510;2022-12-18T18:17:53;27.87;;;13.27;;
15526;SDS011;7865;50.918;4.510;2022-12-18T18:22:55;24.37;;;11.83;;
15526;SDS011;7865;50.918;4.510;2022-12-18T18:27:57;29.37;;;11.50;;
15526;SDS011;7865;50.918;4.510;2022-12-18T18:32:59;26.97;;;12.17;;
15526;SDS011;7865;50.918;4.510;2022-12-18T18:38:01;25.90;;;12.43;;
15526;SDS011;7865;50.918;4.510;2022-12-18T18:43:04;27.07;;;12.33;;
15526;SDS011;7865;50.918;4.510;2022-12-18T18:48:07;28.23;;;12.67;;
15526;SDS011;7865;50.918;4.510;2022-12-18T18:53:09;24.97;;;11.13;;
15526;SDS011;7865;50.918;4.510;2022-12-18T18:58:11;25.70;;;12.30;;
15526;SDS011;7865;50.918;4.510;2022-12-18T19:03:12;30.37;;;14.03;;
15526;SDS011;7865;50.918;4.510;2022-12-18T19:08:14;30.10;;;13.03;;
15526;SDS011;7865;50.918;4.510;2022-12-18T19:13:16;29.63;;;13.23;;
15526;SDS011;7865;50.918;4.510;2022-12-18T19:18:21;30.20;;;12.63;;
15526;SDS011;7865;50.918;4.510;2022-12-18T19:23:24;27.63;;;12.37;;
15526;SDS011;7865;50.918;4.510;2022-12-18T19:28:26;25.60;;;13.07;;
15526;SDS011;7865;50.918;4.510;2022-12-18T19:33:33;24.37;;;11.20;;
15526;SDS011;7865;50.918;4.510;2022-12-18T19:38:45;30.27;;;13.27;;
15526;SDS011;7865;50.918;4.510;2022-12-18T19:43:48;30.93;;;13.00;;
15526;SDS011;7865;50.918;4.510;2022-12-18T19:48:51;22.63;;;11.73;;
15526;SDS011;7865;50.918;4.510;2022-12-18T19:53:54;28.97;;;12.37;;
15526;SDS011;7865;50.918;4.510;2022-12-18T19:59:01;25.50;;;12.33;;
15526;SDS011;7865;50.918;4.510;2022-12-18T20:04:04;29.27;;;14.30;;
15526;SDS011;7865;50.918;4.510;2022-12-18T20:09:07;29.20;;;13.17;;
15526;SDS011;7865;50.918;4.510;2022-12-18T20:14:10;30.00;;;11.93;;
15526;SDS011;7865;50.918;4.510;2022-12-18T20:19:13;26.17;;;11.57;;
15526;SDS011;7865;50.918;4.510;2022-12-18T20:24:16;33.87;;;14.10;;
15526;SDS011;7865;50.918;4.510;2022-12-18T20:29:18;24.63;;;12.80;;
15526;SDS011;7865;50.918;4.510;2022-12-18T20:34:20;27.83;;;13.20;;
15526;SDS011;7865;50.918;4.510;2022-12-18T20:39:23;28.27;;;11.90;;
15526;SDS011;7865;50.918;4.510;2022-12-18T20:44:27;27.87;;;11.73;;
15526;SDS011;7865;50.918;4.510;2022-12-18T20:49:29;28.17;;;13.13;;
15526;SDS011;7865;50.918;4.510;2022-12-18T20:54:31;27.37;;;14.37;;
15526;SDS011;7865;50.918;4.510;2022-12-18T20:59:33;26.63;;;13.30;;
15526;SDS011;7865;50.918;4.510;2022-12-18T21:04:35;25.43;;;13.27;;
15526;SDS011;7865;50.918;4.510;2022-12-18T21:09:36;24.83;;;12.33;;
15526;SDS011;7865;50.918;4.510;2022-12-18T21:14:39;29.30;;;11.13;;
15526;SDS011;7865;50.918;4.510;2022-12-18T21:19:41;23.33;;;11.37;;
15526;SDS011;7865;50.918;4.510;2022-12-18T21:24:43;30.77;;;14.07;;
15526;SDS011;7865;50.918;4.510;2022-12-18T21:29:45;23.47;;;10.77;;
15526;SDS011;7865;50.918;4.510;2022-12-18T21:34:52;24.20;;;12.00;;
15526;SDS011;7865;50.918;4.510;2022-12-18T21:39:53;26.30;;;11.50;;
15526;SDS011;7865;50.918;4.510;2022-12-18T21:44:55;32.00;;;12.40;;
15526;SDS011;7865;50.918;4.510;2022-12-18T21:49:57;23.33;;;11.00;;
15526;SDS011;7865;50.918;4.510;2022-12-18T21:55:00;29.03;;;11.97;;
15526;SDS011;7865;50.918;4.510;2022-12-18T22:00:10;25.30;;;12.23;;
15526;SDS011;7865;50.918;4.510;2022-12-18T22:05:19;24.80;;;12.90;;
15526;SDS011;7865;50.918;4.510;2022-12-18T22:10:21;24.97;;;10.07;;
15526;SDS011;7865;50.918;4.510;2022-12-18T22:15:23;25.80;;;11.80;;
15526;SDS011;7865;50.918;4.510;2022-12-18T22:20:25;25.83;;;12.03;;
15526;SDS011;7865;50.918;4.510;2022-12-18T22:25:27;27.67;;;11.07;;
15526;SDS011;7865;50.918;4.510;2022-12-18T22:30:29;23.17;;;10.77;;
15526;SDS011;7865;50.918;4.510;2022-12-18T22:35:31;21.67;;;11.77;;
15526;SDS011;7865;50.918;4.510;2022-12-18T22:40:33;25.17;;;11.30;;
15526;SDS011;7865;50.918;4.510;2022-12-18T22:45:35;22.20;;;10.63;;
15526;SDS011;7865;50.918;4.510;2022-12-18T22:50:39;26.03;;;11.03;;
15526;SDS011;7865;50.918;4.510;2022-12-18T22:55:41;26.60;;;10.83;;
15526;SDS011;7865;50.918;4.510;2022-12-18T23:00:43;20.43;;;10.60;;
15526;SDS011;7865;50.918;4.510;2022-12-18T23:05:45;23.17;;;10.83;;
15526;SDS011;7865;50.918;4.510;2022-12-18T23:10:50;21.67;;;10.17;;
15526;SDS011;7865;50.918;4.510;2022-12-18T23:15:53;22.77;;;11.10;;
15526;SDS011;7865;50.918;4.510;2022-12-18T23:20:56;26.63;;;11.77;;
15526;SDS011;7865;50.918;4.510;2022-12-18T23:26:05;20.37;;;10.10;;
15526;SDS011;7865;50.918;4.510;2022-12-18T23:31:14;21.13;;;10.57;;
15526;SDS011;7865;50.918;4.510;2022-12-18T23:36:18;20.20;;;9.37;;
15526;SDS011;7865;50.918;4.510;2022-12-18T23:41:21;22.03;;;10.10;;
15526;SDS011;7865;50.918;4.510;2022-12-18T23:46:32;18.13;;;9.30;;
15526;SDS011;7865;50.918;4.510;2022-12-18T23:51:35;22.60;;;10.50;;
15526;SDS011;7865;50.918;4.510;2022-12-18T23:56:38;27.63;;;10.10;;
